Time;durP1;ratioP1;P1;durP2;ratioP2;P2;SDS_P1;SDS_P2;PMS_P1;PMS_P2;Temp;Humidity;BMP_temperature;BMP_pressure;BME280_temperature;BME280_humidity;BME280_pressure;Samples;Min_cycle;Max_cycle;Signal;HPM_P1;HPM_P2
2022/04/24 00:02:05;;;;;;;13.80;8.57;;;26.70;99.90;;;;;;5088730;28;20472;-67
2022/04/24 00:04:32;;;;;;;19.30;8.77;;;26.60;99.90;;;;;;5087851;28;20524;-66
2022/04/24 00:06:58;;;;;;;14.55;9.95;;;26.60;99.90;;;;;;5089304;28;20021;-65
2022/04/24 00:09:26;;;;;;;19.02;10.57;;;26.60;99.90;;;;;;5084373;28;20033;-66
2022/04/24 00:11:52;;;;;;;16.92;8.60;;;26.60;99.90;;;;;;5090897;28;20110;-66
2022/04/24 00:14:19;;;;;;;8.90;6.20;;;26.60;99.90;;;;;;5093219;28;20028;-66
2022/04/24 00:16:46;;;;;;;11.23;7.07;;;26.50;99.90;;;;;;5095938;28;20107;-65
2022/04/24 00:19:15;;;;;;;12.05;6.30;;;26.60;99.90;;;;;;5095078;28;20031;-66
2022/04/24 00:21:42;;;;;;;8.93;6.18;;;26.60;99.90;;;;;;5095287;28;20055;-65
2022/04/24 00:24:08;;;;;;;9.55;5.65;;;26.60;99.90;;;;;;5096633;28;20022;-65
2022/04/24 00:26:35;;;;;;;11.65;5.57;;;26.60;99.90;;;;;;5094964;28;20035;-65
2022/04/24 00:29:02;;;;;;;10.00;5.40;;;26.70;99.90;;;;;;5086199;28;20031;-63
2022/04/24 00:31:29;;;;;;;16.60;5.40;;;26.70;99.90;;;;;;5088921;28;20032;-64
2022/04/24 00:33:55;;;;;;;10.55;5.68;;;26.70;99.90;;;;;;5093789;28;20540;-64
2022/04/24 00:36:22;;;;;;;12.98;7.03;;;26.70;99.90;;;;;;5095982;28;20103;-63
2022/04/24 00:38:49;;;;;;;17.52;7.03;;;26.80;99.90;;;;;;5096213;28;20031;-63
2022/04/24 00:41:15;;;;;;;12.02;6.93;;;26.80;99.90;;;;;;5094739;28;20115;-64
2022/04/24 00:43:49;;;;;;;17.30;7.10;;;26.90;99.90;;;;;;5095391;28;20032;-62
2022/04/24 00:46:36;;;;;;;9.25;5.57;;;26.90;99.90;;;;;;5090952;28;20083;-65
2022/04/24 00:49:03;;;;;;;10.50;6.05;;;26.90;99.90;;;;;;5091927;28;20035;-68
2022/04/24 00:51:30;;;;;;;11.32;8.13;;;26.90;99.90;;;;;;5094802;28;20473;-64
2022/04/24 00:53:57;;;;;;;10.65;7.72;;;27.00;99.90;;;;;;5093277;28;20084;-64
2022/04/24 00:56:30;;;;;;;10.88;7.05;;;27.10;99.90;;;;;;5095048;28;20099;-63
2022/04/24 00:58:58;;;;;;;12.00;6.63;;;27.20;99.90;;;;;;5093739;28;20389;-64
2022/04/24 01:01:25;;;;;;;10.18;4.97;;;27.30;99.90;;;;;;5094479;28;20111;-64
2022/04/24 01:03:54;;;;;;;11.70;5.90;;;27.20;99.90;;;;;;5095340;28;20391;-64
2022/04/24 01:06:20;;;;;;;12.55;10.43;;;27.20;99.90;;;;;;5089873;28;20413;-65
2022/04/24 01:08:47;;;;;;;12.68;7.25;;;27.30;99.90;;;;;;5093334;28;20032;-65
2022/04/24 01:11:14;;;;;;;9.35;6.93;;;27.40;99.90;;;;;;5096146;28;20082;-64
2022/04/24 01:13:40;;;;;;;7.30;5.25;;;27.40;99.90;;;;;;5095789;28;20028;-65
2022/04/24 01:16:07;;;;;;;11.43;5.15;;;27.50;99.90;;;;;;5095778;28;20035;-64
2022/04/24 01:18:34;;;;;;;6.53;5.10;;;27.50;99.90;;;;;;5096227;28;20081;-64
2022/04/24 01:21:07;;;;;;;7.30;4.72;;;27.60;99.90;;;;;;5097641;28;20031;-65
2022/04/24 01:23:34;;;;;;;15.73;5.60;;;27.70;99.90;;;;;;5098879;28;20483;-63
2022/04/24 01:26:01;;;;;;;8.02;5.30;;;27.70;99.90;;;;;;5097130;28;20226;-64
2022/04/24 01:28:27;;;;;;;11.30;5.25;;;27.60;99.90;;;;;;5097391;28;20094;-66
2022/04/24 01:30:54;;;;;;;9.52;5.65;;;27.60;99.90;;;;;;5097731;28;20509;-63
2022/04/24 01:33:54;;;;;;;11.88;8.52;;;27.70;99.90;;;;;;5096887;28;20301;-63
2022/04/24 01:36:21;;;;;;;12.18;9.52;;;27.90;99.90;;;;;;5086320;28;20024;-64
2022/04/24 01:38:48;;;;;;;13.35;9.30;;;28.00;99.90;;;;;;5098376;28;20073;-64
2022/04/24 01:41:15;;;;;;;15.10;9.18;;;28.00;99.90;;;;;;5098077;28;20098;-64
2022/04/24 01:43:42;;;;;;;12.98;9.05;;;28.10;99.90;;;;;;5097206;28;20039;-63
2022/04/24 01:46:09;;;;;;;11.60;8.23;;;28.10;99.90;;;;;;5098896;28;20405;-64
2022/04/24 01:48:36;;;;;;;11.15;7.53;;;28.10;99.90;;;;;;5097473;28;20046;-64
2022/04/24 01:51:04;;;;;;;8.70;7.22;;;28.10;99.90;;;;;;5097857;28;20381;-64
2022/04/24 01:53:32;;;;;;;9.57;5.80;;;28.20;99.90;;;;;;5096550;28;20476;-64
2022/04/24 01:56:00;;;;;;;12.60;6.30;;;28.30;99.90;;;;;;5095410;28;20043;-64
2022/04/24 01:58:27;;;;;;;9.02;5.68;;;28.30;99.90;;;;;;5096982;28;20066;-64
2022/04/24 02:00:55;;;;;;;8.50;6.50;;;28.30;99.90;;;;;;5098657;28;20028;-64
2022/04/24 02:03:23;;;;;;;12.10;7.78;;;28.30;99.90;;;;;;5097201;28;20058;-64
2022/04/24 02:06:07;;;;;;;12.15;7.30;;;28.40;99.90;;;;;;5098058;28;20024;-63
2022/04/24 02:08:36;;;;;;;10.45;5.68;;;28.50;99.90;;;;;;5096644;28;20031;-64
2022/04/24 02:11:06;;;;;;;11.18;6.72;;;28.50;99.90;;;;;;5096196;28;20425;-63
2022/04/24 02:13:34;;;;;;;9.77;7.00;;;28.50;99.90;;;;;;5097442;28;20028;-64
2022/04/24 02:16:01;;;;;;;12.93;8.20;;;28.50;99.90;;;;;;5096751;28;20028;-63
2022/04/24 02:18:29;;;;;;;11.45;8.15;;;28.40;99.90;;;;;;5094783;28;20024;-63
2022/04/24 02:20:55;;;;;;;10.05;7.75;;;28.40;99.90;;;;;;5097119;28;20024;-63
2022/04/24 02:23:22;;;;;;;14.85;8.25;;;28.50;99.90;;;;;;5096915;28;20035;-63
2022/04/24 02:25:49;;;;;;;12.88;8.02;;;28.60;99.90;;;;;;5096091;28;20073;-64
2022/04/24 02:28:15;;;;;;;13.45;9.05;;;28.60;99.90;;;;;;5095514;28;20055;-64
2022/04/24 02:30:42;;;;;;;13.82;9.85;;;28.70;99.90;;;;;;5095380;28;20034;-64
2022/04/24 02:33:09;;;;;;;13.10;8.75;;;28.70;99.90;;;;;;5094800;28;20024;-63
2022/04/24 02:35:36;;;;;;;14.32;9.05;;;28.80;99.90;;;;;;5095068;28;20052;-64
2022/04/24 02:38:02;;;;;;;11.90;8.77;;;28.90;99.90;;;;;;5094006;28;20036;-64
2022/04/24 02:40:29;;;;;;;14.30;9.85;;;28.90;99.90;;;;;;5094312;28;20035;-65
2022/04/24 02:42:56;;;;;;;23.02;13.02;;;29.00;99.90;;;;;;5095015;28;20184;-65
2022/04/24 02:45:23;;;;;;;14.45;9.77;;;29.10;99.90;;;;;;5095517;28;20028;-65
2022/04/24 02:47:50;;;;;;;18.35;9.93;;;29.30;99.90;;;;;;5094521;28;20044;-64
2022/04/24 02:50:17;;;;;;;15.25;10.63;;;29.40;99.90;;;;;;5095813;28;20285;-63
2022/04/24 02:52:49;;;;;;;17.90;9.63;;;29.60;99.90;;;;;;5095406;28;20362;-64
2022/04/24 02:55:17;;;;;;;15.13;10.45;;;29.80;99.90;;;;;;5094889;28;20473;-64
2022/04/24 02:57:44;;;;;;;16.00;11.55;;;29.90;99.90;;;;;;5094972;28;20031;-63
2022/04/24 03:00:13;;;;;;;18.50;12.10;;;29.90;99.90;;;;;;5095877;28;20032;-64
2022/04/24 03:02:41;;;;;;;14.52;9.25;;;29.90;99.90;;;;;;5094166;28;20461;-64
2022/04/24 03:05:10;;;;;;;7.40;5.47;;;29.90;99.90;;;;;;5099090;28;20039;-63
2022/04/24 03:07:36;;;;;;;12.35;8.23;;;30.00;99.90;;;;;;5095591;28;20051;-64
2022/04/24 03:10:04;;;;;;;12.82;8.18;;;29.90;99.90;;;;;;5095525;28;20024;-63
2022/04/24 03:12:31;;;;;;;8.40;5.93;;;29.90;99.90;;;;;;5095638;28;20092;-64
2022/04/24 03:14:57;;;;;;;7.28;6.20;;;30.00;99.90;;;;;;5095626;28;20346;-63
2022/04/24 03:17:24;;;;;;;7.80;5.95;;;30.00;99.90;;;;;;5094291;28;20027;-62
2022/04/24 03:19:51;;;;;;;6.78;6.07;;;30.20;99.90;;;;;;5097921;28;20338;-63
2022/04/24 03:22:18;;;;;;;12.77;8.02;;;30.40;99.90;;;;;;5094763;28;20028;-64
2022/04/24 03:24:45;;;;;;;11.07;7.68;;;30.40;99.90;;;;;;5096650;28;20024;-64
2022/04/24 03:27:13;;;;;;;9.85;7.20;;;30.40;99.90;;;;;;5094628;28;20036;-65
2022/04/24 03:29:40;;;;;;;24.70;16.27;;;30.60;99.90;;;;;;5095006;28;20434;-64
2022/04/24 03:32:08;;;;;;;21.70;15.18;;;30.70;99.90;;;;;;5094796;28;20016;-64
2022/04/24 03:34:37;;;;;;;15.10;11.50;;;30.80;99.90;;;;;;5094934;28;20024;-64
2022/04/24 03:37:04;;;;;;;16.15;11.40;;;30.70;99.90;;;;;;5094781;28;20384;-64
2022/04/24 03:39:31;;;;;;;15.75;10.05;;;30.70;99.90;;;;;;5094396;28;20086;-64
2022/04/24 03:41:58;;;;;;;18.10;10.25;;;30.70;99.90;;;;;;5095022;28;20036;-63
2022/04/24 03:44:26;;;;;;;18.83;11.20;;;30.70;99.90;;;;;;5093581;28;20486;-64
2022/04/24 03:46:53;;;;;;;20.00;12.75;;;30.70;99.90;;;;;;5096024;28;20408;-62
2022/04/24 03:49:19;;;;;;;19.80;12.57;;;30.90;99.90;;;;;;5094421;28;20054;-63
2022/04/24 03:51:46;;;;;;;12.45;9.90;;;31.20;99.90;;;;;;5097397;28;20549;-63
2022/04/24 03:54:13;;;;;;;18.40;11.38;;;31.10;99.90;;;;;;5097738;28;20392;-62
2022/04/24 03:56:39;;;;;;;17.08;12.07;;;31.10;99.90;;;;;;5097581;28;20036;-63
2022/04/24 03:59:06;;;;;;;24.42;14.63;;;31.10;99.90;;;;;;5097274;28;20032;-64
2022/04/24 04:01:33;;;;;;;29.58;14.15;;;31.20;99.90;;;;;;5099070;28;20028;-63
2022/04/24 04:03:59;;;;;;;19.05;13.85;;;31.20;99.90;;;;;;5098227;28;20040;-62
2022/04/24 04:06:26;;;;;;;22.63;14.30;;;31.10;99.90;;;;;;5097557;28;20380;-63
2022/04/24 04:08:53;;;;;;;21.75;15.20;;;31.20;99.90;;;;;;5098265;28;20476;-63
2022/04/24 04:11:19;;;;;;;25.70;14.93;;;31.20;99.90;;;;;;5099121;28;20032;-63
2022/04/24 04:13:46;;;;;;;23.65;14.98;;;31.30;99.90;;;;;;5097665;28;20032;-63
2022/04/24 04:16:13;;;;;;;22.83;14.05;;;31.30;99.90;;;;;;5097389;28;20074;-63
2022/04/24 04:18:40;;;;;;;19.90;13.32;;;31.40;99.90;;;;;;5096779;28;20038;-63
2022/04/24 04:21:06;;;;;;;21.35;13.23;;;31.40;99.90;;;;;;5097298;28;20032;-63
2022/04/24 04:23:33;;;;;;;20.70;13.20;;;31.50;99.90;;;;;;5098119;28;20035;-64
2022/04/24 04:26:00;;;;;;;17.90;12.23;;;31.60;99.90;;;;;;5099282;28;20051;-63
2022/04/24 04:28:26;;;;;;;23.67;13.02;;;31.60;99.90;;;;;;5096576;28;20477;-64
2022/04/24 04:30:54;;;;;;;15.63;11.45;;;31.60;99.20;;;;;;5097285;28;20468;-63
2022/04/24 04:33:21;;;;;;;17.95;11.77;;;31.50;99.90;;;;;;5098713;28;20421;-65
2022/04/24 04:35:48;;;;;;;19.77;11.80;;;31.50;99.90;;;;;;5098121;28;20020;-64
2022/04/24 04:38:14;;;;;;;19.25;12.25;;;31.50;99.90;;;;;;5097270;28;20024;-62
2022/04/24 04:40:41;;;;;;;14.82;9.75;;;31.60;99.80;;;;;;5096572;28;20028;-63
2022/04/24 04:43:08;;;;;;;14.50;9.43;;;31.70;99.90;;;;;;5097506;28;20073;-64
2022/04/24 04:45:35;;;;;;;15.20;9.10;;;31.70;99.90;;;;;;5096466;28;20388;-65
2022/04/24 04:48:01;;;;;;;13.15;9.88;;;31.80;99.70;;;;;;5096107;28;20381;-65
2022/04/24 04:50:28;;;;;;;10.30;7.85;;;31.90;99.20;;;;;;5096857;28;20051;-63
2022/04/24 04:52:55;;;;;;;13.65;9.23;;;31.90;98.20;;;;;;5097909;28;20499;-64
2022/04/24 04:55:22;;;;;;;15.95;8.63;;;31.90;97.60;;;;;;5096959;28;20044;-63
2022/04/24 04:57:50;;;;;;;13.45;8.52;;;31.90;98.40;;;;;;5096200;28;20455;-64
2022/04/24 05:00:17;;;;;;;12.20;8.60;;;32.10;98.60;;;;;;5096358;28;20481;-63
2022/04/24 05:02:44;;;;;;;12.80;8.77;;;32.20;98.60;;;;;;5096134;28;20032;-63
2022/04/24 05:05:11;;;;;;;10.88;8.10;;;32.20;98.40;;;;;;5098081;28;20036;-64
2022/04/24 05:07:38;;;;;;;11.65;8.23;;;32.20;97.90;;;;;;5097633;28;20469;-63
2022/04/24 05:10:06;;;;;;;15.05;7.82;;;32.20;98.30;;;;;;5099335;28;20028;-65
2022/04/24 05:12:33;;;;;;;10.90;7.80;;;32.20;98.10;;;;;;5097217;28;20031;-65
2022/04/24 05:15:02;;;;;;;12.10;7.45;;;32.10;97.90;;;;;;5096118;28;20028;-64
2022/04/24 05:17:29;;;;;;;12.40;8.82;;;32.10;97.70;;;;;;5096658;28;20035;-63
2022/04/24 05:19:56;;;;;;;14.07;7.20;;;32.00;98.00;;;;;;5098912;28;20468;-63
2022/04/24 05:22:24;;;;;;;13.32;8.00;;;32.10;98.20;;;;;;5096906;28;20540;-63
2022/04/24 05:24:51;;;;;;;16.88;7.22;;;32.10;98.20;;;;;;5097112;28;20032;-64
2022/04/24 05:27:19;;;;;;;8.93;7.00;;;32.30;97.40;;;;;;5098406;28;20032;-63
2022/04/24 05:29:46;;;;;;;16.67;7.47;;;32.30;97.70;;;;;;5098941;28;20273;-63
2022/04/24 05:32:13;;;;;;;13.75;7.57;;;32.30;97.40;;;;;;5098573;28;20047;-63
2022/04/24 05:34:40;;;;;;;12.25;7.70;;;32.30;97.40;;;;;;5096817;28;20087;-63
2022/04/24 05:37:07;;;;;;;10.93;7.55;;;32.20;97.10;;;;;;5095241;28;20036;-63
2022/04/24 05:39:34;;;;;;;9.73;6.40;;;32.20;97.80;;;;;;5094914;28;20063;-64
2022/04/24 05:42:01;;;;;;;14.95;6.20;;;32.20;96.60;;;;;;5095011;28;20027;-63
2022/04/24 05:44:28;;;;;;;12.60;6.80;;;32.20;97.60;;;;;;5094814;28;20480;-63
2022/04/24 05:46:54;;;;;;;10.50;6.65;;;32.50;96.30;;;;;;5094290;28;20051;-62
2022/04/24 05:49:21;;;;;;;10.55;6.43;;;32.70;94.60;;;;;;5094767;28;20030;-63
2022/04/24 05:51:48;;;;;;;9.05;6.88;;;32.70;95.50;;;;;;5094789;28;20024;-63
2022/04/24 05:54:18;;;;;;;7.85;5.93;;;32.70;95.80;;;;;;5094598;28;20024;-63
2022/04/24 05:56:44;;;;;;;11.82;7.10;;;32.70;96.30;;;;;;5094669;28;20028;-63
2022/04/24 05:59:11;;;;;;;12.80;5.82;;;32.70;96.80;;;;;;5094630;28;20039;-63
2022/04/24 06:01:38;;;;;;;12.57;7.50;;;32.70;96.70;;;;;;5094426;28;20028;-63
2022/04/24 06:04:04;;;;;;;7.85;6.10;;;32.70;96.80;;;;;;5094328;28;20396;-63
2022/04/24 06:06:32;;;;;;;11.15;6.10;;;32.80;95.70;;;;;;5094465;28;20028;-63
2022/04/24 06:08:59;;;;;;;8.88;6.93;;;32.70;96.60;;;;;;5093979;28;20388;-63
2022/04/24 06:11:25;;;;;;;9.23;5.82;;;32.80;96.80;;;;;;5093790;28;20066;-64
2022/04/24 06:13:53;;;;;;;8.32;6.03;;;32.90;96.20;;;;;;5093234;28;20036;-65
2022/04/24 06:16:19;;;;;;;10.90;5.45;;;32.90;96.30;;;;;;5094131;28;20020;-63
2022/04/24 06:18:46;;;;;;;7.95;5.78;;;33.00;96.20;;;;;;5094230;28;20384;-64
2022/04/24 06:21:12;;;;;;;7.15;5.25;;;33.00;96.10;;;;;;5094210;28;20042;-62
2022/04/24 06:23:39;;;;;;;8.23;4.88;;;33.10;96.20;;;;;;5093941;28;20034;-63
2022/04/24 06:26:06;;;;;;;7.85;6.00;;;33.10;95.10;;;;;;5094171;28;20028;-65
2022/04/24 06:28:32;;;;;;;8.43;5.70;;;33.10;95.80;;;;;;5094051;28;20024;-62
2022/04/24 06:30:59;;;;;;;9.27;6.03;;;33.20;94.60;;;;;;5093923;28;20024;-63
2022/04/24 06:33:27;;;;;;;9.48;5.00;;;33.20;94.30;;;;;;5094207;28;20426;-63
2022/04/24 06:35:55;;;;;;;5.95;5.28;;;33.10;94.60;;;;;;5093991;28;20039;-63
2022/04/24 06:38:22;;;;;;;6.57;5.65;;;33.20;94.40;;;;;;5093856;28;20480;-62
2022/04/24 06:40:49;;;;;;;8.73;5.50;;;33.10;94.00;;;;;;5093925;28;20031;-62
2022/04/24 06:43:16;;;;;;;5.88;5.20;;;33.00;94.40;;;;;;5093880;28;20028;-62
2022/04/24 06:45:43;;;;;;;14.07;5.70;;;33.00;94.50;;;;;;5093380;28;20085;-63
2022/04/24 06:48:12;;;;;;;8.77;5.35;;;33.00;94.10;;;;;;5093852;28;20051;-63
2022/04/24 06:50:41;;;;;;;8.93;5.43;;;32.90;94.40;;;;;;5093727;28;20035;-64
2022/04/24 06:53:10;;;;;;;10.57;5.55;;;32.90;94.40;;;;;;5093610;28;20093;-63
2022/04/24 06:55:41;;;;;;;10.70;4.97;;;33.10;94.50;;;;;;5093709;28;20031;-63
2022/04/24 06:58:09;;;;;;;8.95;5.88;;;33.20;93.80;;;;;;5093952;28;20023;-63
2022/04/24 07:00:39;;;;;;;9.10;6.45;;;33.40;94.20;;;;;;5093519;28;20431;-63
2022/04/24 07:03:14;;;;;;;7.65;5.57;;;33.40;94.30;;;;;;5093624;28;20028;-62
2022/04/24 07:05:42;;;;;;;6.57;5.60;;;33.60;93.80;;;;;;5093432;28;20076;-63
2022/04/24 07:08:09;;;;;;;8.90;7.05;;;33.60;93.70;;;;;;5093304;28;20415;-62
2022/04/24 07:10:36;;;;;;;9.90;6.53;;;33.60;92.70;;;;;;5093568;28;20107;-63
2022/04/24 07:13:04;;;;;;;25.63;20.02;;;33.60;93.30;;;;;;5093336;28;20046;-64
2022/04/24 07:15:38;;;;;;;34.33;24.92;;;33.40;93.70;;;;;;5093530;28;20024;-63
2022/04/24 07:18:06;;;;;;;32.17;21.92;;;33.40;93.70;;;;;;5093484;28;20024;-64
2022/04/24 07:20:32;;;;;;;29.20;23.02;;;33.40;94.30;;;;;;5093339;28;20057;-65
2022/04/24 07:23:02;;;;;;;25.95;19.55;;;33.40;93.60;;;;;;5093505;28;20032;-64
2022/04/24 07:25:41;;;;;;;30.83;23.50;;;33.30;93.90;;;;;;5093952;28;20035;-63
2022/04/24 07:28:08;;;;;;;30.02;22.20;;;33.20;93.90;;;;;;5097517;28;20020;-63
2022/04/24 07:30:35;;;;;;;28.55;21.02;;;33.10;92.70;;;;;;5097525;28;20024;-63
2022/04/24 07:33:02;;;;;;;25.23;18.38;;;33.00;92.40;;;;;;5097281;28;20024;-63
2022/04/24 07:35:32;;;;;;;17.17;13.95;;;32.90;93.40;;;;;;5097428;28;20036;-63
2022/04/24 07:37:58;;;;;;;12.70;8.30;;;33.00;93.70;;;;;;5097422;28;20454;-63
2022/04/24 07:40:27;;;;;;;9.68;6.32;;;33.10;91.90;;;;;;5097129;28;20028;-63
2022/04/24 07:42:57;;;;;;;9.10;5.85;;;33.20;92.60;;;;;;5097278;28;20062;-63
2022/04/24 07:45:24;;;;;;;10.02;4.82;;;33.30;91.80;;;;;;5097140;28;20028;-64
2022/04/24 07:47:52;;;;;;;6.15;5.10;;;33.40;91.20;;;;;;5096607;28;20408;-64
2022/04/24 07:50:21;;;;;;;8.48;5.35;;;33.30;91.10;;;;;;5097288;28;20110;-64
2022/04/24 07:52:48;;;;;;;12.25;5.90;;;33.40;90.30;;;;;;5097061;28;20075;-64
2022/04/24 07:55:17;;;;;;;7.25;5.15;;;33.50;90.30;;;;;;5096947;28;20032;-65
2022/04/24 07:57:46;;;;;;;7.05;4.75;;;33.50;90.30;;;;;;5096975;28;20109;-64
2022/04/24 08:00:15;;;;;;;5.60;5.00;;;33.50;89.80;;;;;;5096890;28;20027;-65
2022/04/24 08:02:47;;;;;;;7.43;4.78;;;33.40;88.20;;;;;;5096750;28;20067;-63
2022/04/24 08:05:19;;;;;;;5.20;4.70;;;33.40;89.20;;;;;;5096759;28;20024;-64
2022/04/24 08:07:46;;;;;;;6.97;5.32;;;33.40;88.50;;;;;;5096409;28;20484;-64
2022/04/24 08:10:13;;;;;;;7.93;5.35;;;33.40;87.50;;;;;;5096733;28;20472;-64
2022/04/24 08:12:40;;;;;;;9.60;6.38;;;33.40;90.10;;;;;;5096902;28;20028;-63
2022/04/24 08:15:07;;;;;;;13.18;7.82;;;33.60;90.70;;;;;;5096472;28;20031;-64
2022/04/24 08:17:33;;;;;;;11.60;8.77;;;33.60;91.00;;;;;;5096606;28;20024;-64
2022/04/24 08:20:00;;;;;;;18.00;9.68;;;33.60;90.20;;;;;;5096812;28;20103;-64
2022/04/24 08:22:35;;;;;;;11.23;8.32;;;33.60;91.00;;;;;;5096336;28;20024;-63
2022/04/24 08:25:02;;;;;;;12.10;9.02;;;33.60;91.00;;;;;;5096635;28;20032;-64
2022/04/24 08:27:28;;;;;;;16.33;10.55;;;33.60;91.70;;;;;;5096418;28;20108;-64
2022/04/24 08:29:55;;;;;;;14.57;10.68;;;33.60;91.20;;;;;;5096425;28;20486;-64
2022/04/24 08:32:24;;;;;;;13.00;9.48;;;33.60;91.50;;;;;;5096330;28;20020;-63
2022/04/24 08:34:51;;;;;;;11.32;9.25;;;33.60;91.40;;;;;;5096308;28;20473;-64
2022/04/24 08:37:18;;;;;;;13.35;8.32;;;33.60;91.30;;;;;;5095610;28;20028;-64
2022/04/24 08:39:44;;;;;;;12.60;8.85;;;33.60;90.50;;;;;;5096106;28;20035;-63
2022/04/24 08:42:13;;;;;;;14.77;10.18;;;33.60;90.50;;;;;;5096167;28;20028;-64
2022/04/24 08:44:41;;;;;;;11.00;7.65;;;33.50;90.70;;;;;;5096139;28;20043;-63
2022/04/24 08:47:08;;;;;;;12.38;7.97;;;33.60;90.80;;;;;;5095754;28;20481;-63
2022/04/24 08:49:35;;;;;;;12.50;8.23;;;33.50;90.70;;;;;;5095963;28;20108;-63
2022/04/24 08:52:03;;;;;;;8.43;6.85;;;33.50;90.40;;;;;;5095835;28;20028;-62
2022/04/24 08:54:29;;;;;;;11.00;7.40;;;33.60;90.50;;;;;;5096193;28;20028;-63
2022/04/24 08:56:58;;;;;;;12.45;7.10;;;33.50;90.20;;;;;;5095869;28;20028;-63
2022/04/24 08:59:25;;;;;;;16.20;8.50;;;33.50;90.30;;;;;;5095649;28;20107;-63
2022/04/24 09:01:52;;;;;;;17.38;9.40;;;33.40;90.40;;;;;;5095766;28;20032;-62
2022/04/24 09:04:20;;;;;;;18.70;9.90;;;33.40;90.70;;;;;;5095614;28;20035;-62
2022/04/24 09:06:58;;;;;;;17.88;11.20;;;33.40;91.00;;;;;;5095478;28;20027;-65
2022/04/24 09:09:25;;;;;;;14.45;10.25;;;33.40;91.00;;;;;;5095598;28;20024;-64
2022/04/24 09:11:52;;;;;;;15.07;9.38;;;33.40;91.30;;;;;;5091451;28;20035;-66
2022/04/24 09:14:19;;;;;;;12.90;8.30;;;33.30;91.00;;;;;;5092589;28;20115;-65
2022/04/24 09:16:49;;;;;;;7.80;6.97;;;33.30;91.20;;;;;;5091671;28;20036;-64
2022/04/24 09:19:23;;;;;;;24.52;13.70;;;33.30;91.00;;;;;;5094479;28;20127;-65
2022/04/24 09:21:52;;;;;;;19.10;12.30;;;33.30;90.70;;;;;;5089761;28;20026;-64
2022/04/24 09:24:20;;;;;;;21.15;12.05;;;33.30;91.00;;;;;;5076179;28;20032;-66
2022/04/24 09:26:51;;;;;;;31.70;17.48;;;33.30;91.40;;;;;;5091631;28;20112;-65
2022/04/24 09:29:18;;;;;;;27.37;17.37;;;33.30;92.10;;;;;;5092712;28;20085;-65
2022/04/24 09:31:47;;;;;;;29.40;20.52;;;33.10;92.30;;;;;;5093076;28;20257;-66
2022/04/24 09:34:16;;;;;;;30.58;20.90;;;33.10;92.60;;;;;;5093935;28;20380;-67
2022/04/24 09:36:44;;;;;;;36.00;22.88;;;33.10;93.20;;;;;;5089802;28;20103;-65
2022/04/24 09:39:11;;;;;;;29.27;21.75;;;33.10;93.80;;;;;;5094036;28;20012;-64
2022/04/24 09:41:39;;;;;;;24.83;19.08;;;33.00;93.50;;;;;;5090544;28;20097;-64
2022/04/24 09:44:14;;;;;;;31.70;20.85;;;32.90;93.60;;;;;;5091201;28;20476;-66
2022/04/24 09:46:42;;;;;;;45.05;34.15;;;32.90;93.40;;;;;;5091065;28;20450;-66
2022/04/24 09:49:10;;;;;;;38.17;26.55;;;32.90;93.50;;;;;;5089943;28;20031;-63
2022/04/24 09:51:42;;;;;;;34.30;24.17;;;32.90;93.90;;;;;;5089676;28;20031;-63
2022/04/24 09:54:10;;;;;;;30.20;19.67;;;32.80;93.80;;;;;;5090886;28;20024;-66
2022/04/24 09:56:38;;;;;;;29.65;20.08;;;32.80;93.70;;;;;;5091687;28;20024;-64
2022/04/24 09:59:05;;;;;;;21.40;17.00;;;32.80;93.70;;;;;;5092965;28;20492;-65
2022/04/24 10:01:33;;;;;;;28.05;17.70;;;32.80;93.40;;;;;;5091502;28;20469;-67
2022/04/24 10:04:00;;;;;;;27.83;15.95;;;32.70;94.00;;;;;;5092505;28;20110;-66
2022/04/24 10:06:27;;;;;;;55.83;36.05;;;32.80;94.00;;;;;;5088133;28;20035;-63
2022/04/24 10:08:54;;;;;;;73.55;49.25;;;32.80;93.60;;;;;;5092538;28;20070;-66
2022/04/24 10:11:21;;;;;;;27.77;19.77;;;32.80;93.90;;;;;;5085037;28;20025;-66
2022/04/24 10:13:51;;;;;;;28.17;17.48;;;32.70;93.80;;;;;;5090017;28;20492;-64
2022/04/24 10:16:21;;;;;;;33.03;22.02;;;32.70;94.00;;;;;;5090142;28;20031;-65
2022/04/24 10:18:55;;;;;;;46.60;34.67;;;32.70;93.90;;;;;;5093499;28;20027;-65
2022/04/24 10:21:40;;;;;;;67.32;47.20;;;32.80;94.30;;;;;;5085563;28;20083;-64
2022/04/24 10:24:09;;;;;;;51.42;38.95;;;32.70;94.30;;;;;;5091605;28;20031;-66
2022/04/24 10:26:37;;;;;;;47.60;32.60;;;32.70;94.40;;;;;;5092949;28;20023;-64
2022/04/24 10:29:09;;;;;;;79.60;55.88;;;32.60;94.70;;;;;;5092627;28;20039;-66
2022/04/24 10:31:44;;;;;;;75.07;42.88;;;32.60;94.80;;;;;;5091968;28;20016;-66
2022/04/24 10:34:13;;;;;;;64.72;42.15;;;32.60;94.70;;;;;;5091182;28;20051;-65
2022/04/24 10:37:01;;;;;;;62.38;41.55;;;32.40;94.60;;;;;;5091864;28;20036;-69
2022/04/24 10:39:33;;;;;;;60.28;44.33;;;32.40;94.70;;;;;;5089860;28;20032;-66
2022/04/24 10:42:09;;;;;;;67.60;47.78;;;32.50;95.20;;;;;;5092511;28;20031;-65
2022/04/24 10:44:35;;;;;;;74.25;49.38;;;32.50;95.40;;;;;;5083691;28;20135;-63
2022/04/24 10:47:11;;;;;;;69.95;45.85;;;32.40;95.50;;;;;;5086047;28;20454;-66
2022/04/24 10:49:38;;;;;;;73.35;50.92;;;32.40;95.70;;;;;;5087479;28;20103;-64
2022/04/24 10:52:06;;;;;;;75.72;50.28;;;32.40;95.40;;;;;;5088149;28;20366;-64
2022/04/24 10:54:36;;;;;;;71.55;44.90;;;32.40;95.60;;;;;;5077310;28;20038;-65
2022/04/24 10:57:19;;;;;;;70.43;47.00;;;32.30;95.60;;;;;;5079923;28;20047;-65
2022/04/24 10:59:48;;;;;;;61.22;44.78;;;32.30;96.20;;;;;;5093553;28;20031;-64
2022/04/24 11:02:21;;;;;;;74.43;51.15;;;32.20;96.60;;;;;;5093132;28;20384;-63
2022/04/24 11:05:04;;;;;;;75.47;51.03;;;32.20;96.60;;;;;;5084913;28;20483;-64
2022/04/24 11:07:31;;;;;;;72.43;45.30;;;32.20;97.60;;;;;;5073598;28;20025;-64
2022/04/24 11:10:09;;;;;;;69.28;44.92;;;32.20;98.60;;;;;;5091914;28;20024;-65
2022/04/24 11:12:37;;;;;;;51.45;29.08;;;32.00;99.90;;;;;;5087694;28;20039;-63
2022/04/24 11:15:06;;;;;;;47.67;34.78;;;31.80;99.90;;;;;;5078497;28;20036;-65
2022/04/24 11:17:34;;;;;;;66.57;48.55;;;31.40;99.90;;;;;;5074731;28;20396;-65
2022/04/24 11:20:08;;;;;;;117.10;73.88;;;31.10;99.90;;;;;;5092188;28;20465;-64
2022/04/24 11:22:49;;;;;;;150.32;103.55;;;30.80;99.90;;;;;;5088418;28;20028;-64
2022/04/24 11:25:17;;;;;;;69.53;48.00;;;30.40;99.90;;;;;;5080416;28;20138;-64
2022/04/24 11:27:45;;;;;;;55.92;41.72;;;30.00;99.90;;;;;;5089971;28;20017;-67
2022/04/24 11:30:20;;;;;;;45.55;33.88;;;29.70;99.90;;;;;;5089370;28;20096;-65
2022/04/24 11:32:59;;;;;;;50.80;37.67;;;29.70;99.90;;;;;;5087600;28;20032;-66
2022/04/24 11:35:29;;;;;;;46.03;32.45;;;29.70;99.90;;;;;;5090353;28;20028;-63
2022/04/24 11:37:55;;;;;;;40.75;30.25;;;29.60;99.90;;;;;;5090313;28;20028;-65
2022/04/24 11:40:22;;;;;;;40.75;28.95;;;29.80;99.90;;;;;;5091608;28;20020;-64
2022/04/24 11:42:49;;;;;;;45.42;32.80;;;29.90;99.90;;;;;;5090197;28;20028;-65
2022/04/24 11:50:36;;;;;;;46.78;36.85;;;29.70;99.90;;;;;;5091708;28;19962;-64
2022/04/24 11:53:03;;;;;;;39.95;29.90;;;29.50;99.90;;;;;;5091569;28;20089;-64
2022/04/24 11:58:08;;;;;;;39.67;30.42;;;29.30;99.90;;;;;;5085795;28;20099;-65
2022/04/24 12:00:38;;;;;;;45.30;32.63;;;29.30;99.90;;;;;;5091338;28;20039;-63
2022/04/24 12:03:06;;;;;;;42.85;34.55;;;29.40;99.90;;;;;;5087404;28;20048;-63
2022/04/24 12:05:33;;;;;;;62.92;50.03;;;29.50;99.90;;;;;;5090427;28;20089;-61
2022/04/24 12:08:01;;;;;;;59.78;46.90;;;29.60;99.90;;;;;;5092089;28;20031;-64
2022/04/24 12:10:27;;;;;;;45.58;36.30;;;29.80;99.90;;;;;;5092155;28;20050;-64
2022/04/24 12:12:55;;;;;;;43.92;32.80;;;29.90;99.90;;;;;;5092203;28;20024;-64
2022/04/24 12:15:24;;;;;;;55.65;44.22;;;29.90;99.90;;;;;;5091088;28;20534;-66
2022/04/24 12:17:55;;;;;;;45.25;37.58;;;29.90;99.90;;;;;;5087170;28;20064;-63
2022/04/24 12:20:34;;;;;;;42.35;33.58;;;29.90;99.90;;;;;;5090671;28;20031;-65
2022/04/24 12:23:18;;;;;;;56.85;44.55;;;29.70;99.90;;;;;;5093130;28;20381;-67
2022/04/24 12:25:50;;;;;;;58.08;44.85;;;29.80;99.90;;;;;;5093388;28;20020;-66
2022/04/24 12:28:39;;;;;;;53.72;46.03;;;29.90;99.90;;;;;;5091544;28;20439;-65
2022/04/24 12:31:18;;;;;;;64.72;48.67;;;30.10;99.90;;;;;;5091898;28;20382;-64
2022/04/24 12:33:47;;;;;;;61.30;40.45;;;30.00;99.90;;;;;;5089021;28;20036;-64
2022/04/24 12:36:15;;;;;;;51.60;39.85;;;30.00;99.90;;;;;;5088359;28;20380;-64
2022/04/24 12:38:58;;;;;;;50.10;34.72;;;30.00;99.90;;;;;;5087424;28;20374;-64
2022/04/24 12:41:27;;;;;;;43.40;34.60;;;29.90;99.90;;;;;;5092131;28;20108;-63
2022/04/24 12:44:01;;;;;;;45.83;36.92;;;29.80;99.90;;;;;;5086543;28;20024;-64
2022/04/24 12:46:28;;;;;;;50.97;36.50;;;29.80;99.90;;;;;;5094491;28;20040;-64
2022/04/24 12:48:56;;;;;;;47.38;38.88;;;29.80;99.90;;;;;;5089662;28;20100;-65
2022/04/24 12:51:24;;;;;;;63.65;49.40;;;29.80;99.90;;;;;;5090338;28;20035;-64